Cave Springs, Arkansas
Current Conditions -  °F | °C
As of 5:53 PM on Friday 28 Nov 2014 (Local Time) from KXNA Reporting Station
Clear Clear  
Wind Chill: 55°   Ceiling: Unl
Heat Index: 55°   Visibility: 10mi
Dew Point: 38°   Wind: 14mph
Humidity: 53%   Direction: 190°S
Pressure: 29.92"   Gusts: NA
Location:  36.26°N, 94.23°W
Report Text: KXNA 282353Z 19012KT 10SM CLR 13/03 A2992 RMK AO2 SLP134 T01280033 10156 20128 56009
Loading
Personal Weather Stations






























Interactive Weather Map New forecast layout! Learn more

10-Day Weather Forecast

Advertisements
Track Severe Weather on mobile